sensor_id;sensor_type;location;lat;lon;timestamp;temperature;humidity
17200;DHT22;8716;52.268;20.968;2023-07-29T00:02:27;18.60;99.90
17200;DHT22;8716;52.268;20.968;2023-07-29T00:04:58;18.60;99.90
17200;DHT22;8716;52.268;20.968;2023-07-29T00:07:26;18.60;99.90
17200;DHT22;8716;52.268;20.968;2023-07-29T00:09:54;18.60;99.90
17200;DHT22;8716;52.268;20.968;2023-07-29T00:12:23;18.60;99.90
17200;DHT22;8716;52.268;20.968;2023-07-29T00:14:51;18.60;99.90
17200;DHT22;8716;52.268;20.968;2023-07-29T00:17:20;18.60;99.90
17200;DHT22;8716;52.268;20.968;2023-07-29T00:19:49;18.60;99.90
17200;DHT22;8716;52.268;20.968;2023-07-29T00:22:17;18.60;99.90
17200;DHT22;8716;52.268;20.968;2023-07-29T00:24:51;18.60;99.90
17200;DHT22;8716;52.268;20.968;2023-07-29T00:27:20;18.40;99.90
17200;DHT22;8716;52.268;20.968;2023-07-29T00:29:49;18.50;99.90
17200;DHT22;8716;52.268;20.968;2023-07-29T00:32:17;18.50;99.90
17200;DHT22;8716;52.268;20.968;2023-07-29T00:34:48;18.40;99.90
17200;DHT22;8716;52.268;20.968;2023-07-29T00:37:16;18.40;99.90
17200;DHT22;8716;52.268;20.968;2023-07-29T00:39:45;18.40;99.90
17200;DHT22;8716;52.268;20.968;2023-07-29T00:42:13;18.40;99.90
17200;DHT22;8716;52.268;20.968;2023-07-29T00:44:42;18.30;99.90
17200;DHT22;8716;52.268;20.968;2023-07-29T00:47:11;18.30;99.90
17200;DHT22;8716;52.268;20.968;2023-07-29T00:49:41;18.30;99.90
17200;DHT22;8716;52.268;20.968;2023-07-29T00:52:12;18.30;99.90
17200;DHT22;8716;52.268;20.968;2023-07-29T00:54:41;18.30;99.90
17200;DHT22;8716;52.268;20.968;2023-07-29T00:57:11;18.20;99.90
17200;DHT22;8716;52.268;20.968;2023-07-29T00:59:41;18.20;99.90
17200;DHT22;8716;52.268;20.968;2023-07-29T01:02:10;18.10;99.90
17200;DHT22;8716;52.268;20.968;2023-07-29T01:04:40;18.10;99.90
17200;DHT22;8716;52.268;20.968;2023-07-29T01:07:17;18.10;99.90
17200;DHT22;8716;52.268;20.968;2023-07-29T01:10:00;18.10;99.90
17200;DHT22;8716;52.268;20.968;2023-07-29T01:12:36;18.10;99.90
17200;DHT22;8716;52.268;20.968;2023-07-29T01:15:11;18.10;99.90
17200;DHT22;8716;52.268;20.968;2023-07-29T01:17:46;18.10;99.90
17200;DHT22;8716;52.268;20.968;2023-07-29T01:20:16;18.10;99.90
17200;DHT22;8716;52.268;20.968;2023-07-29T01:22:48;18.10;99.90
17200;DHT22;8716;52.268;20.968;2023-07-29T01:25:18;18.00;99.90
17200;DHT22;8716;52.268;20.968;2023-07-29T01:27:48;18.00;99.90
17200;DHT22;8716;52.268;20.968;2023-07-29T01:30:19;18.00;99.90
17200;DHT22;8716;52.268;20.968;2023-07-29T01:32:53;18.00;99.90
17200;DHT22;8716;52.268;20.968;2023-07-29T01:35:26;18.00;99.90
17200;DHT22;8716;52.268;20.968;2023-07-29T01:37:59;18.00;99.90
17200;DHT22;8716;52.268;20.968;2023-07-29T01:40:31;18.00;99.90
17200;DHT22;8716;52.268;20.968;2023-07-29T01:43:00;18.00;99.90
17200;DHT22;8716;52.268;20.968;2023-07-29T01:45:29;18.00;99.90
17200;DHT22;8716;52.268;20.968;2023-07-29T01:48:02;17.90;99.90
17200;DHT22;8716;52.268;20.968;2023-07-29T01:50:31;17.90;99.90
17200;DHT22;8716;52.268;20.968;2023-07-29T01:53:00;17.80;99.90
17200;DHT22;8716;52.268;20.968;2023-07-29T01:55:30;17.80;99.90
17200;DHT22;8716;52.268;20.968;2023-07-29T01:57:59;17.70;99.90
17200;DHT22;8716;52.268;20.968;2023-07-29T02:00:28;17.70;99.90
17200;DHT22;8716;52.268;20.968;2023-07-29T02:02:59;17.60;99.90
17200;DHT22;8716;52.268;20.968;2023-07-29T02:05:30;17.60;99.90
17200;DHT22;8716;52.268;20.968;2023-07-29T02:07:58;17.50;99.90
17200;DHT22;8716;52.268;20.968;2023-07-29T02:10:26;17.50;99.90
17200;DHT22;8716;52.268;20.968;2023-07-29T02:12:58;17.50;99.90
17200;DHT22;8716;52.268;20.968;2023-07-29T02:15:26;17.40;99.90
17200;DHT22;8716;52.268;20.968;2023-07-29T02:17:55;17.40;99.90
17200;DHT22;8716;52.268;20.968;2023-07-29T02:20:23;17.40;99.90
17200;DHT22;8716;52.268;20.968;2023-07-29T02:22:52;17.40;99.90
17200;DHT22;8716;52.268;20.968;2023-07-29T02:25:20;17.40;99.90
17200;DHT22;8716;52.268;20.968;2023-07-29T02:27:49;17.30;99.90
17200;DHT22;8716;52.268;20.968;2023-07-29T02:30:19;17.30;99.90
17200;DHT22;8716;52.268;20.968;2023-07-29T02:32:47;17.30;99.90
17200;DHT22;8716;52.268;20.968;2023-07-29T02:35:17;17.30;99.90
17200;DHT22;8716;52.268;20.968;2023-07-29T02:38:00;17.30;99.90
17200;DHT22;8716;52.268;20.968;2023-07-29T02:40:29;17.30;99.90
17200;DHT22;8716;52.268;20.968;2023-07-29T02:42:57;17.20;99.90
17200;DHT22;8716;52.268;20.968;2023-07-29T02:45:27;17.20;99.90
17200;DHT22;8716;52.268;20.968;2023-07-29T02:47:55;17.20;99.90
17200;DHT22;8716;52.268;20.968;2023-07-29T02:50:23;17.10;99.90
17200;DHT22;8716;52.268;20.968;2023-07-29T02:52:51;17.20;99.90
17200;DHT22;8716;52.268;20.968;2023-07-29T02:55:20;17.10;99.90
17200;DHT22;8716;52.268;20.968;2023-07-29T02:57:48;17.10;99.90
17200;DHT22;8716;52.268;20.968;2023-07-29T03:00:16;17.20;99.90
17200;DHT22;8716;52.268;20.968;2023-07-29T03:02:46;17.10;99.90
17200;DHT22;8716;52.268;20.968;2023-07-29T03:05:15;17.10;99.90
17200;DHT22;8716;52.268;20.968;2023-07-29T03:07:43;17.10;99.90
17200;DHT22;8716;52.268;20.968;2023-07-29T03:10:12;17.10;99.90
17200;DHT22;8716;52.268;20.968;2023-07-29T03:12:41;17.10;99.90
17200;DHT22;8716;52.268;20.968;2023-07-29T03:15:10;17.10;99.90
17200;DHT22;8716;52.268;20.968;2023-07-29T03:17:38;17.00;99.90
17200;DHT22;8716;52.268;20.968;2023-07-29T03:20:08;17.00;99.90
17200;DHT22;8716;52.268;20.968;2023-07-29T03:22:37;17.10;99.90
17200;DHT22;8716;52.268;20.968;2023-07-29T03:25:05;17.00;99.90
17200;DHT22;8716;52.268;20.968;2023-07-29T03:27:34;17.00;99.90
17200;DHT22;8716;52.268;20.968;2023-07-29T03:30:04;17.10;99.90
17200;DHT22;8716;52.268;20.968;2023-07-29T03:32:33;17.00;99.90
17200;DHT22;8716;52.268;20.968;2023-07-29T03:35:01;17.10;99.90
17200;DHT22;8716;52.268;20.968;2023-07-29T03:37:31;17.10;99.90
17200;DHT22;8716;52.268;20.968;2023-07-29T03:40:00;17.10;99.90
17200;DHT22;8716;52.268;20.968;2023-07-29T03:42:31;17.20;99.90
17200;DHT22;8716;52.268;20.968;2023-07-29T03:45:02;17.20;99.90
17200;DHT22;8716;52.268;20.968;2023-07-29T03:47:30;17.20;99.90
17200;DHT22;8716;52.268;20.968;2023-07-29T03:49:59;17.30;99.90
17200;DHT22;8716;52.268;20.968;2023-07-29T03:52:31;17.30;99.90
17200;DHT22;8716;52.268;20.968;2023-07-29T03:55:02;17.30;99.90
17200;DHT22;8716;52.268;20.968;2023-07-29T03:57:30;17.30;99.90
17200;DHT22;8716;52.268;20.968;2023-07-29T04:00:01;17.30;99.90
17200;DHT22;8716;52.268;20.968;2023-07-29T04:02:30;17.40;99.90
17200;DHT22;8716;52.268;20.968;2023-07-29T04:04:59;17.40;99.90
17200;DHT22;8716;52.268;20.968;2023-07-29T04:07:27;17.40;99.90
17200;DHT22;8716;52.268;20.968;2023-07-29T04:09:57;17.40;99.90
17200;DHT22;8716;52.268;20.968;2023-07-29T04:12:26;17.50;99.90
17200;DHT22;8716;52.268;20.968;2023-07-29T04:14:57;17.60;99.90
17200;DHT22;8716;52.268;20.968;2023-07-29T04:17:25;17.60;99.90
17200;DHT22;8716;52.268;20.968;2023-07-29T04:19:53;17.70;99.90
17200;DHT22;8716;52.268;20.968;2023-07-29T04:22:27;17.70;99.90
17200;DHT22;8716;52.268;20.968;2023-07-29T04:24:58;17.80;99.90
17200;DHT22;8716;52.268;20.968;2023-07-29T04:27:26;17.80;99.90
17200;DHT22;8716;52.268;20.968;2023-07-29T04:29:54;17.90;99.90
17200;DHT22;8716;52.268;20.968;2023-07-29T04:32:22;17.90;99.90
17200;DHT22;8716;52.268;20.968;2023-07-29T04:34:51;18.00;99.90
17200;DHT22;8716;52.268;20.968;2023-07-29T04:37:19;18.00;99.90
17200;DHT22;8716;52.268;20.968;2023-07-29T04:39:47;18.10;99.90
17200;DHT22;8716;52.268;20.968;2023-07-29T04:42:17;18.20;99.90
17200;DHT22;8716;52.268;20.968;2023-07-29T04:44:45;18.30;99.90
17200;DHT22;8716;52.268;20.968;2023-07-29T04:47:14;18.40;99.90
17200;DHT22;8716;52.268;20.968;2023-07-29T04:49:41;18.40;99.90
17200;DHT22;8716;52.268;20.968;2023-07-29T04:52:10;18.60;99.90
17200;DHT22;8716;52.268;20.968;2023-07-29T04:54:38;18.70;99.90
17200;DHT22;8716;52.268;20.968;2023-07-29T04:57:06;18.80;99.90
17200;DHT22;8716;52.268;20.968;2023-07-29T04:59:37;18.90;99.90
17200;DHT22;8716;52.268;20.968;2023-07-29T05:02:05;18.90;99.90
17200;DHT22;8716;52.268;20.968;2023-07-29T05:04:34;19.00;99.90
17200;DHT22;8716;52.268;20.968;2023-07-29T05:07:03;19.00;99.90
17200;DHT22;8716;52.268;20.968;2023-07-29T05:09:31;19.10;99.90
17200;DHT22;8716;52.268;20.968;2023-07-29T05:12:00;19.10;99.90
17200;DHT22;8716;52.268;20.968;2023-07-29T05:14:28;19.10;99.90
17200;DHT22;8716;52.268;20.968;2023-07-29T05:16:58;19.10;99.90
17200;DHT22;8716;52.268;20.968;2023-07-29T05:19:26;19.20;99.90
17200;DHT22;8716;52.268;20.968;2023-07-29T05:21:55;19.30;99.90
17200;DHT22;8716;52.268;20.968;2023-07-29T05:24:24;19.30;99.90
17200;DHT22;8716;52.268;20.968;2023-07-29T05:26:52;19.30;99.90
17200;DHT22;8716;52.268;20.968;2023-07-29T05:29:20;19.40;99.90
17200;DHT22;8716;52.268;20.968;2023-07-29T05:31:49;19.40;99.90
17200;DHT22;8716;52.268;20.968;2023-07-29T05:34:20;19.40;99.90
17200;DHT22;8716;52.268;20.968;2023-07-29T05:36:48;19.40;99.90
17200;DHT22;8716;52.268;20.968;2023-07-29T05:39:19;19.40;99.90
17200;DHT22;8716;52.268;20.968;2023-07-29T05:41:49;19.50;99.90
17200;DHT22;8716;52.268;20.968;2023-07-29T05:44:17;19.60;99.90
17200;DHT22;8716;52.268;20.968;2023-07-29T05:46:46;19.60;99.90
17200;DHT22;8716;52.268;20.968;2023-07-29T05:49:14;19.70;99.90
17200;DHT22;8716;52.268;20.968;2023-07-29T05:51:44;19.80;99.90
17200;DHT22;8716;52.268;20.968;2023-07-29T05:54:12;19.80;99.90
17200;DHT22;8716;52.268;20.968;2023-07-29T05:56:41;19.80;99.90
17200;DHT22;8716;52.268;20.968;2023-07-29T05:59:09;19.90;99.90
17200;DHT22;8716;52.268;20.968;2023-07-29T06:01:37;20.10;99.90
17200;DHT22;8716;52.268;20.968;2023-07-29T06:04:06;20.20;99.90
17200;DHT22;8716;52.268;20.968;2023-07-29T06:06:34;20.30;99.90
17200;DHT22;8716;52.268;20.968;2023-07-29T06:09:04;20.40;99.90
17200;DHT22;8716;52.268;20.968;2023-07-29T06:11:33;20.40;99.90
17200;DHT22;8716;52.268;20.968;2023-07-29T06:14:01;20.50;99.90
17200;DHT22;8716;52.268;20.968;2023-07-29T06:16:29;20.50;99.90
17200;DHT22;8716;52.268;20.968;2023-07-29T06:18:58;20.60;99.90
17200;DHT22;8716;52.268;20.968;2023-07-29T06:21:26;20.60;99.90
17200;DHT22;8716;52.268;20.968;2023-07-29T06:23:55;20.70;99.90
17200;DHT22;8716;52.268;20.968;2023-07-29T06:26:24;20.70;99.90
17200;DHT22;8716;52.268;20.968;2023-07-29T06:28:53;20.70;99.90
17200;DHT22;8716;52.268;20.968;2023-07-29T06:31:21;20.90;99.90
17200;DHT22;8716;52.268;20.968;2023-07-29T06:33:50;20.90;99.90
17200;DHT22;8716;52.268;20.968;2023-07-29T06:36:20;21.90;99.90
17200;DHT22;8716;52.268;20.968;2023-07-29T06:38:49;23.40;99.90
17200;DHT22;8716;52.268;20.968;2023-07-29T06:41:17;24.80;99.90
17200;DHT22;8716;52.268;20.968;2023-07-29T06:43:51;26.30;99.90
17200;DHT22;8716;52.268;20.968;2023-07-29T06:46:19;27.00;99.90
17200;DHT22;8716;52.268;20.968;2023-07-29T06:48:48;27.30;99.90
17200;DHT22;8716;52.268;20.968;2023-07-29T06:51:16;28.00;99.90
17200;DHT22;8716;52.268;20.968;2023-07-29T06:53:44;29.20;99.90
17200;DHT22;8716;52.268;20.968;2023-07-29T06:56:13;30.20;99.90
17200;DHT22;8716;52.268;20.968;2023-07-29T06:58:41;31.00;99.90
17200;DHT22;8716;52.268;20.968;2023-07-29T07:01:10;32.00;99.90
17200;DHT22;8716;52.268;20.968;2023-07-29T07:03:39;32.80;99.90
17200;DHT22;8716;52.268;20.968;2023-07-29T07:06:08;33.50;99.90
17200;DHT22;8716;52.268;20.968;2023-07-29T07:08:36;34.20;99.90
17200;DHT22;8716;52.268;20.968;2023-07-29T07:11:04;34.80;99.90
17200;DHT22;8716;52.268;20.968;2023-07-29T07:13:33;34.90;99.90
17200;DHT22;8716;52.268;20.968;2023-07-29T07:16:01;34.70;98.80
17200;DHT22;8716;52.268;20.968;2023-07-29T07:18:31;34.40;99.20
17200;DHT22;8716;52.268;20.968;2023-07-29T07:20:59;34.90;98.20
17200;DHT22;8716;52.268;20.968;2023-07-29T07:23:28;35.70;96.70
17200;DHT22;8716;52.268;20.968;2023-07-29T07:25:59;36.50;95.00
17200;DHT22;8716;52.268;20.968;2023-07-29T07:28:27;36.30;93.30
17200;DHT22;8716;52.268;20.968;2023-07-29T07:30:55;35.50;93.50
17200;DHT22;8716;52.268;20.968;2023-07-29T07:33:24;35.70;93.50
17200;DHT22;8716;52.268;20.968;2023-07-29T07:35:54;36.20;92.30
17200;DHT22;8716;52.268;20.968;2023-07-29T07:38:22;36.60;91.40
17200;DHT22;8716;52.268;20.968;2023-07-29T07:40:54;36.70;90.60
17200;DHT22;8716;52.268;20.968;2023-07-29T07:43:23;37.00;90.60
17200;DHT22;8716;52.268;20.968;2023-07-29T07:45:57;37.30;89.10
17200;DHT22;8716;52.268;20.968;2023-07-29T07:48:26;37.90;86.50
17200;DHT22;8716;52.268;20.968;2023-07-29T07:50:56;38.50;84.00
17200;DHT22;8716;52.268;20.968;2023-07-29T07:53:24;38.50;81.90
17200;DHT22;8716;52.268;20.968;2023-07-29T07:55:53;38.60;82.30
17200;DHT22;8716;52.268;20.968;2023-07-29T07:58:21;39.00;78.80
17200;DHT22;8716;52.268;20.968;2023-07-29T08:00:50;39.30;78.00
17200;DHT22;8716;52.268;20.968;2023-07-29T08:03:18;39.80;76.40
17200;DHT22;8716;52.268;20.968;2023-07-29T08:05:46;40.40;74.90
17200;DHT22;8716;52.268;20.968;2023-07-29T08:08:18;40.50;73.40
17200;DHT22;8716;52.268;20.968;2023-07-29T08:10:47;41.20;72.10
17200;DHT22;8716;52.268;20.968;2023-07-29T08:13:15;41.40;69.70
17200;DHT22;8716;52.268;20.968;2023-07-29T08:15:46;41.20;69.10
17200;DHT22;8716;52.268;20.968;2023-07-29T08:18:15;40.40;69.10
17200;DHT22;8716;52.268;20.968;2023-07-29T08:20:52;38.90;70.20
17200;DHT22;8716;52.268;20.968;2023-07-29T08:23:51;37.40;72.00
17200;DHT22;8716;52.268;20.968;2023-07-29T08:26:19;36.80;74.40
17200;DHT22;8716;52.268;20.968;2023-07-29T08:28:48;36.70;74.60
17200;DHT22;8716;52.268;20.968;2023-07-29T08:31:21;36.00;75.10
17200;DHT22;8716;52.268;20.968;2023-07-29T08:33:50;35.60;77.20
17200;DHT22;8716;52.268;20.968;2023-07-29T08:36:18;35.70;77.20
17200;DHT22;8716;52.268;20.968;2023-07-29T08:38:47;35.20;77.00
17200;DHT22;8716;52.268;20.968;2023-07-29T08:41:19;35.60;77.30
17200;DHT22;8716;52.268;20.968;2023-07-29T08:43:55;36.50;75.30
17200;DHT22;8716;52.268;20.968;2023-07-29T08:46:24;37.00;73.80
17200;DHT22;8716;52.268;20.968;2023-07-29T08:48:55;37.90;73.00
17200;DHT22;8716;52.268;20.968;2023-07-29T08:51:23;38.30;71.10
17200;DHT22;8716;52.268;20.968;2023-07-29T08:53:54;38.40;71.70
17200;DHT22;8716;52.268;20.968;2023-07-29T08:56:25;38.90;70.30
17200;DHT22;8716;52.268;20.968;2023-07-29T08:58:54;39.30;69.10
17200;DHT22;8716;52.268;20.968;2023-07-29T09:01:23;39.60;67.70
17200;DHT22;8716;52.268;20.968;2023-07-29T09:03:51;39.60;67.20
17200;DHT22;8716;52.268;20.968;2023-07-29T09:06:20;40.10;67.50
17200;DHT22;8716;52.268;20.968;2023-07-29T09:08:50;40.50;64.30
17200;DHT22;8716;52.268;20.968;2023-07-29T09:11:19;41.00;65.20
17200;DHT22;8716;52.268;20.968;2023-07-29T09:13:49;41.50;64.30
17200;DHT22;8716;52.268;20.968;2023-07-29T09:16:17;41.50;62.60
17200;DHT22;8716;52.268;20.968;2023-07-29T09:18:50;40.80;62.00
17200;DHT22;8716;52.268;20.968;2023-07-29T09:21:23;39.90;63.40
17200;DHT22;8716;52.268;20.968;2023-07-29T09:23:52;39.50;64.50
17200;DHT22;8716;52.268;20.968;2023-07-29T09:26:22;38.90;64.80
17200;DHT22;8716;52.268;20.968;2023-07-29T09:28:53;37.90;65.30
17200;DHT22;8716;52.268;20.968;2023-07-29T09:31:23;37.10;67.80
17200;DHT22;8716;52.268;20.968;2023-07-29T09:33:56;36.80;67.90
17200;DHT22;8716;52.268;20.968;2023-07-29T09:36:25;36.20;69.00
17200;DHT22;8716;52.268;20.968;2023-07-29T09:38:54;35.60;69.60
17200;DHT22;8716;52.268;20.968;2023-07-29T09:41:23;36.10;69.40
17200;DHT22;8716;52.268;20.968;2023-07-29T09:44:00;36.80;68.00
17200;DHT22;8716;52.268;20.968;2023-07-29T09:46:32;37.70;68.00
17200;DHT22;8716;52.268;20.968;2023-07-29T09:49:03;38.60;64.70
17200;DHT22;8716;52.268;20.968;2023-07-29T09:51:31;39.40;64.70
17200;DHT22;8716;52.268;20.968;2023-07-29T09:54:02;39.80;63.80
17200;DHT22;8716;52.268;20.968;2023-07-29T09:56:31;40.30;63.00
17200;DHT22;8716;52.268;20.968;2023-07-29T09:59:00;40.90;61.60
17200;DHT22;8716;52.268;20.968;2023-07-29T10:01:32;41.00;59.90
17200;DHT22;8716;52.268;20.968;2023-07-29T10:04:10;40.30;61.20
17200;DHT22;8716;52.268;20.968;2023-07-29T10:06:45;40.30;62.20
17200;DHT22;8716;52.268;20.968;2023-07-29T10:09:19;40.80;60.70
17200;DHT22;8716;52.268;20.968;2023-07-29T10:11:49;41.30;59.50
17200;DHT22;8716;52.268;20.968;2023-07-29T10:14:40;41.80;58.60
17200;DHT22;8716;52.268;20.968;2023-07-29T10:17:10;42.20;58.00
17200;DHT22;8716;52.268;20.968;2023-07-29T10:19:39;42.20;56.60
17200;DHT22;8716;52.268;20.968;2023-07-29T10:22:10;41.90;55.20
17200;DHT22;8716;52.268;20.968;2023-07-29T10:24:41;41.60;56.90
17200;DHT22;8716;52.268;20.968;2023-07-29T10:27:11;41.70;56.70
17200;DHT22;8716;52.268;20.968;2023-07-29T10:29:45;41.50;57.50
17200;DHT22;8716;52.268;20.968;2023-07-29T10:32:14;41.50;56.70
17200;DHT22;8716;52.268;20.968;2023-07-29T10:37:47;41.50;56.30
17200;DHT22;8716;52.268;20.968;2023-07-29T10:40:18;41.00;56.80
17200;DHT22;8716;52.268;20.968;2023-07-29T10:51:44;40.60;57.10
17200;DHT22;8716;52.268;20.968;2023-07-29T10:54:17;40.40;56.60
17200;DHT22;8716;52.268;20.968;2023-07-29T10:57:05;40.50;58.10
17200;DHT22;8716;52.268;20.968;2023-07-29T10:59:33;40.60;58.20
17200;DHT22;8716;52.268;20.968;2023-07-29T11:02:30;40.80;57.60
17200;DHT22;8716;52.268;20.968;2023-07-29T11:05:04;40.80;57.10
17200;DHT22;8716;52.268;20.968;2023-07-29T11:07:43;40.60;56.80
17200;DHT22;8716;52.268;20.968;2023-07-29T11:10:13;40.40;56.70
17200;DHT22;8716;52.268;20.968;2023-07-29T11:12:45;40.10;57.00
17200;DHT22;8716;52.268;20.968;2023-07-29T11:15:17;39.80;58.50
17200;DHT22;8716;52.268;20.968;2023-07-29T11:17:47;39.50;56.90
17200;DHT22;8716;52.268;20.968;2023-07-29T11:20:17;39.10;59.10
17200;DHT22;8716;52.268;20.968;2023-07-29T11:22:46;38.90;60.60
17200;DHT22;8716;52.268;20.968;2023-07-29T11:25:17;38.70;59.40
17200;DHT22;8716;52.268;20.968;2023-07-29T11:27:46;38.40;60.30
17200;DHT22;8716;52.268;20.968;2023-07-29T11:30:15;38.10;60.40
17200;DHT22;8716;52.268;20.968;2023-07-29T11:32:45;37.90;61.30
17200;DHT22;8716;52.268;20.968;2023-07-29T11:35:16;37.80;60.80
17200;DHT22;8716;52.268;20.968;2023-07-29T11:37:47;37.50;61.10
17200;DHT22;8716;52.268;20.968;2023-07-29T11:40:18;37.10;61.80
17200;DHT22;8716;52.268;20.968;2023-07-29T11:42:47;36.80;62.10
17200;DHT22;8716;52.268;20.968;2023-07-29T11:45:17;36.50;63.40
17200;DHT22;8716;52.268;20.968;2023-07-29T11:47:46;36.30;63.70
17200;DHT22;8716;52.268;20.968;2023-07-29T11:50:17;36.20;64.50
17200;DHT22;8716;52.268;20.968;2023-07-29T11:52:47;36.00;63.90
17200;DHT22;8716;52.268;20.968;2023-07-29T11:55:16;35.70;64.30
17200;DHT22;8716;52.268;20.968;2023-07-29T11:57:49;35.40;65.70
17200;DHT22;8716;52.268;20.968;2023-07-29T12:00:21;35.20;65.90
17200;DHT22;8716;52.268;20.968;2023-07-29T12:02:49;35.00;66.30
17200;DHT22;8716;52.268;20.968;2023-07-29T12:05:20;34.70;66.10
17200;DHT22;8716;52.268;20.968;2023-07-29T12:07:50;34.60;67.10
17200;DHT22;8716;52.268;20.968;2023-07-29T12:10:19;34.40;67.20
17200;DHT22;8716;52.268;20.968;2023-07-29T12:12:49;34.20;67.70
17200;DHT22;8716;52.268;20.968;2023-07-29T12:15:25;34.00;67.90
17200;DHT22;8716;52.268;20.968;2023-07-29T12:17:54;34.00;68.80
17200;DHT22;8716;52.268;20.968;2023-07-29T12:20:25;33.80;68.50
17200;DHT22;8716;52.268;20.968;2023-07-29T12:22:56;33.70;68.50
17200;DHT22;8716;52.268;20.968;2023-07-29T12:25:26;33.40;69.10
17200;DHT22;8716;52.268;20.968;2023-07-29T12:28:02;33.10;70.00
17200;DHT22;8716;52.268;20.968;2023-07-29T12:30:30;33.00;71.40
17200;DHT22;8716;52.268;20.968;2023-07-29T12:32:59;33.10;72.10
17200;DHT22;8716;52.268;20.968;2023-07-29T12:35:37;33.20;71.30
17200;DHT22;8716;52.268;20.968;2023-07-29T12:38:08;33.20;70.90
17200;DHT22;8716;52.268;20.968;2023-07-29T12:40:38;33.20;70.50
17200;DHT22;8716;52.268;20.968;2023-07-29T12:43:09;33.10;71.10
17200;DHT22;8716;52.268;20.968;2023-07-29T12:45:37;33.20;72.20
17200;DHT22;8716;52.268;20.968;2023-07-29T12:48:10;33.20;71.10
17200;DHT22;8716;52.268;20.968;2023-07-29T12:50:41;32.90;70.50
17200;DHT22;8716;52.268;20.968;2023-07-29T12:53:13;32.80;71.80
17200;DHT22;8716;52.268;20.968;2023-07-29T12:55:41;32.80;71.60
17200;DHT22;8716;52.268;20.968;2023-07-29T12:58:10;32.50;71.30
17200;DHT22;8716;52.268;20.968;2023-07-29T13:00:38;32.20;71.40
17200;DHT22;8716;52.268;20.968;2023-07-29T13:03:06;31.80;72.20
17200;DHT22;8716;52.268;20.968;2023-07-29T13:05:35;31.50;72.80
17200;DHT22;8716;52.268;20.968;2023-07-29T13:08:03;31.20;73.70
17200;DHT22;8716;52.268;20.968;2023-07-29T13:10:33;31.10;74.20
17200;DHT22;8716;52.268;20.968;2023-07-29T13:13:01;31.00;74.50
17200;DHT22;8716;52.268;20.968;2023-07-29T13:15:29;30.70;74.60
17200;DHT22;8716;52.268;20.968;2023-07-29T13:17:58;30.50;75.20
17200;DHT22;8716;52.268;20.968;2023-07-29T13:20:26;30.50;76.20
17200;DHT22;8716;52.268;20.968;2023-07-29T13:22:56;30.30;76.30
17200;DHT22;8716;52.268;20.968;2023-07-29T13:25:24;30.30;77.50
17200;DHT22;8716;52.268;20.968;2023-07-29T13:27:54;30.30;78.00
17200;DHT22;8716;52.268;20.968;2023-07-29T13:30:22;30.30;78.00
17200;DHT22;8716;52.268;20.968;2023-07-29T13:32:51;30.40;77.70
17200;DHT22;8716;52.268;20.968;2023-07-29T13:35:20;30.40;77.30
17200;DHT22;8716;52.268;20.968;2023-07-29T13:37:52;30.30;77.70
17200;DHT22;8716;52.268;20.968;2023-07-29T13:40:20;30.40;77.80
17200;DHT22;8716;52.268;20.968;2023-07-29T13:42:51;30.50;77.70
17200;DHT22;8716;52.268;20.968;2023-07-29T13:45:21;30.50;77.40
17200;DHT22;8716;52.268;20.968;2023-07-29T13:47:50;30.50;77.40
17200;DHT22;8716;52.268;20.968;2023-07-29T13:50:19;30.50;77.70
17200;DHT22;8716;52.268;20.968;2023-07-29T13:52:48;30.50;77.90
17200;DHT22;8716;52.268;20.968;2023-07-29T13:55:16;30.40;78.00
17200;DHT22;8716;52.268;20.968;2023-07-29T13:57:45;30.20;78.40
17200;DHT22;8716;52.268;20.968;2023-07-29T14:00:13;30.20;78.20
17200;DHT22;8716;52.268;20.968;2023-07-29T14:02:43;30.10;78.10
17200;DHT22;8716;52.268;20.968;2023-07-29T14:05:11;30.00;78.30
17200;DHT22;8716;52.268;20.968;2023-07-29T14:07:41;29.90;78.70
17200;DHT22;8716;52.268;20.968;2023-07-29T14:10:09;29.80;78.90
17200;DHT22;8716;52.268;20.968;2023-07-29T14:12:38;29.70;78.90
17200;DHT22;8716;52.268;20.968;2023-07-29T14:15:07;29.50;78.80
17200;DHT22;8716;52.268;20.968;2023-07-29T14:17:35;29.40;79.20
17200;DHT22;8716;52.268;20.968;2023-07-29T14:20:07;29.40;79.50
17200;DHT22;8716;52.268;20.968;2023-07-29T14:22:36;29.40;80.10
17200;DHT22;8716;52.268;20.968;2023-07-29T14:25:05;29.40;80.50
17200;DHT22;8716;52.268;20.968;2023-07-29T14:27:33;29.30;80.90
17200;DHT22;8716;52.268;20.968;2023-07-29T14:30:02;29.40;80.40
17200;DHT22;8716;52.268;20.968;2023-07-29T14:32:31;29.30;80.80
17200;DHT22;8716;52.268;20.968;2023-07-29T14:34:59;29.30;81.90
17200;DHT22;8716;52.268;20.968;2023-07-29T14:37:31;29.30;81.90
17200;DHT22;8716;52.268;20.968;2023-07-29T14:40:00;29.40;81.40
17200;DHT22;8716;52.268;20.968;2023-07-29T14:42:28;29.40;81.40
17200;DHT22;8716;52.268;20.968;2023-07-29T14:45:00;29.40;82.20
17200;DHT22;8716;52.268;20.968;2023-07-29T14:47:28;29.40;82.40
17200;DHT22;8716;52.268;20.968;2023-07-29T14:50:02;29.40;82.50
17200;DHT22;8716;52.268;20.968;2023-07-29T14:52:32;29.30;82.00
17200;DHT22;8716;52.268;20.968;2023-07-29T14:55:00;29.40;81.90
17200;DHT22;8716;52.268;20.968;2023-07-29T14:57:28;29.40;81.90
17200;DHT22;8716;52.268;20.968;2023-07-29T14:59:57;29.40;82.00
17200;DHT22;8716;52.268;20.968;2023-07-29T15:02:25;29.40;81.70
17200;DHT22;8716;52.268;20.968;2023-07-29T15:04:53;29.40;82.00
17200;DHT22;8716;52.268;20.968;2023-07-29T15:07:22;29.40;82.60
17200;DHT22;8716;52.268;20.968;2023-07-29T15:09:52;29.40;83.10
17200;DHT22;8716;52.268;20.968;2023-07-29T15:12:23;29.40;83.90
17200;DHT22;8716;52.268;20.968;2023-07-29T15:14:51;29.30;83.20
17200;DHT22;8716;52.268;20.968;2023-07-29T15:17:22;29.30;82.80
17200;DHT22;8716;52.268;20.968;2023-07-29T15:19:50;29.20;82.70
17200;DHT22;8716;52.268;20.968;2023-07-29T15:22:18;29.30;83.10
17200;DHT22;8716;52.268;20.968;2023-07-29T15:24:46;29.20;83.40
17200;DHT22;8716;52.268;20.968;2023-07-29T15:27:18;29.10;84.20
17200;DHT22;8716;52.268;20.968;2023-07-29T15:29:47;29.00;84.10
17200;DHT22;8716;52.268;20.968;2023-07-29T15:32:17;29.00;84.40
17200;DHT22;8716;52.268;20.968;2023-07-29T15:34:46;28.90;84.50
17200;DHT22;8716;52.268;20.968;2023-07-29T15:37:15;28.80;84.90
17200;DHT22;8716;52.268;20.968;2023-07-29T15:39:46;28.80;85.20
17200;DHT22;8716;52.268;20.968;2023-07-29T15:42:15;28.90;85.20
17200;DHT22;8716;52.268;20.968;2023-07-29T15:44:46;28.90;84.80
17200;DHT22;8716;52.268;20.968;2023-07-29T15:47:14;28.90;85.10
17200;DHT22;8716;52.268;20.968;2023-07-29T15:49:46;28.90;85.40
17200;DHT22;8716;52.268;20.968;2023-07-29T15:52:14;29.00;85.80
17200;DHT22;8716;52.268;20.968;2023-07-29T15:54:43;29.00;85.90
17200;DHT22;8716;52.268;20.968;2023-07-29T15:57:12;28.90;86.10
17200;DHT22;8716;52.268;20.968;2023-07-29T15:59:41;28.80;86.20